Time;durP1;ratioP1;P1;durP2;ratioP2;P2;SDS_P1;SDS_P2;PMS_P1;PMS_P2;Temp;Humidity;BMP_temperature;BMP_pressure;BME280_temperature;BME280_humidity;BME280_pressure;Samples;Min_cycle;Max_cycle;Signal;HPM_P1;HPM_P2
2021/04/30 00:02:10;;;;;;;33.57;16.53;;;12.90;99.90;;;;;;4470205;28;655339;-66
2021/04/30 00:04:57;;;;;;;36.63;17.97;;;12.90;99.90;;;;;;4448858;28;655686;-67
2021/04/30 00:07:44;;;;;;;33.87;17.23;;;12.90;99.90;;;;;;4457232;28;655219;-65
2021/04/30 00:10:31;;;;;;;34.33;17.90;;;12.90;99.90;;;;;;4455594;28;655944;-66
2021/04/30 00:13:19;;;;;;;41.53;19.33;;;12.90;99.90;;;;;;4442332;28;655868;-65
2021/04/30 00:16:06;;;;;;;44.00;18.67;;;12.80;99.90;;;;;;4465013;28;656234;-66
2021/04/30 00:18:53;;;;;;;36.23;18.27;;;12.70;99.90;;;;;;4434044;28;655524;-65
2021/04/30 00:21:40;;;;;;;43.10;19.33;;;12.70;99.90;;;;;;4467297;28;655035;-65
2021/04/30 00:24:27;;;;;;;36.80;19.10;;;12.60;99.90;;;;;;4444334;28;655666;-66
2021/04/30 00:27:14;;;;;;;40.83;20.40;;;12.60;99.90;;;;;;4456441;28;656646;-65
2021/04/30 00:30:02;;;;;;;41.70;20.00;;;12.50;99.90;;;;;;4457622;28;657538;-65
2021/04/30 00:32:49;;;;;;;38.70;19.63;;;12.50;99.90;;;;;;4436750;28;657817;-65
2021/04/30 00:35:36;;;;;;;39.03;18.80;;;12.40;99.90;;;;;;4452897;28;657273;-65
2021/04/30 00:38:23;;;;;;;40.50;19.27;;;12.40;99.90;;;;;;4434212;28;656507;-66
2021/04/30 00:41:10;;;;;;;40.87;17.87;;;12.40;99.90;;;;;;4466097;28;657493;-65
2021/04/30 00:43:57;;;;;;;32.63;17.33;;;12.40;99.90;;;;;;4459503;28;656579;-67
2021/04/30 00:46:45;;;;;;;34.67;16.40;;;12.30;99.90;;;;;;4459577;28;657681;-66
2021/04/30 00:49:32;;;;;;;32.73;16.83;;;12.30;99.90;;;;;;4442798;28;657167;-67
2021/04/30 00:52:19;;;;;;;40.95;17.08;;;12.20;99.90;;;;;;4471500;28;656971;-66
2021/04/30 00:55:07;;;;;;;41.08;18.75;;;12.20;99.90;;;;;;4453250;28;657583;-67
2021/04/30 00:57:56;;;;;;;41.80;20.87;;;12.10;99.90;;;;;;4439484;28;656887;-67
2021/04/30 01:00:43;;;;;;;47.27;22.80;;;12.00;99.90;;;;;;4439432;28;657180;-66
2021/04/30 01:03:31;;;;;;;41.27;21.27;;;11.90;99.90;;;;;;4463983;28;658023;-66
2021/04/30 01:06:18;;;;;;;40.80;19.27;;;11.90;99.90;;;;;;4443068;28;656748;-68
2021/04/30 01:09:06;;;;;;;39.33;20.23;;;11.80;99.90;;;;;;4451948;28;657469;-67
2021/04/30 01:11:52;;;;;;;43.13;21.73;;;11.70;99.90;;;;;;4431515;28;657123;-68
2021/04/30 01:14:39;;;;;;;44.20;20.97;;;11.60;99.90;;;;;;4459013;28;657512;-66
2021/04/30 01:17:26;;;;;;;40.87;20.70;;;11.60;99.90;;;;;;4466763;28;656766;-66
2021/04/30 01:20:16;;;;;;;42.57;20.17;;;11.60;99.90;;;;;;4437813;28;656384;-66
2021/04/30 01:23:03;;;;;;;36.80;18.60;;;11.60;99.90;;;;;;4445197;28;656972;-67
2021/04/30 01:25:50;;;;;;;38.77;20.60;;;11.60;99.90;;;;;;4460874;28;657323;-65
2021/04/30 01:28:37;;;;;;;36.77;17.87;;;11.60;99.90;;;;;;4448178;28;656564;-66
2021/04/30 01:31:24;;;;;;;40.70;19.83;;;11.50;99.90;;;;;;4458015;28;656462;-66
2021/04/30 01:34:11;;;;;;;39.57;18.47;;;11.60;99.90;;;;;;4451382;28;655924;-65
2021/04/30 01:36:58;;;;;;;32.67;18.23;;;11.50;99.90;;;;;;4439302;28;656725;-66
2021/04/30 01:39:46;;;;;;;37.10;19.17;;;11.50;99.90;;;;;;4449907;28;657599;-66
2021/04/30 01:42:33;;;;;;;37.77;19.50;;;11.50;99.90;;;;;;4429980;28;656296;-66
2021/04/30 01:45:20;;;;;;;39.97;20.00;;;11.50;99.90;;;;;;4458317;28;657188;-66
2021/04/30 01:48:10;;;;;;;38.90;20.63;;;11.40;99.90;;;;;;4432744;28;657088;-67
2021/04/30 01:50:58;;;;;;;41.92;21.02;;;11.40;99.90;;;;;;4450926;28;656640;-67
2021/04/30 01:53:45;;;;;;;41.50;21.33;;;11.40;99.90;;;;;;4459904;28;657770;-66
2021/04/30 01:56:33;;;;;;;40.20;19.57;;;11.40;99.90;;;;;;4445324;28;656704;-67
2021/04/30 01:59:20;;;;;;;32.10;16.70;;;11.40;99.90;;;;;;4453825;28;657404;-66
2021/04/30 02:02:07;;;;;;;33.90;16.83;;;11.40;99.90;;;;;;4439162;28;657463;-67
2021/04/30 02:04:54;;;;;;;33.75;17.65;;;11.40;99.90;;;;;;4465273;28;657110;-66
2021/04/30 02:07:41;;;;;;;32.33;17.17;;;11.30;99.90;;;;;;4456782;28;656758;-66
2021/04/30 02:10:28;;;;;;;33.35;17.23;;;11.30;99.90;;;;;;4444287;28;656504;-66
2021/04/30 02:13:16;;;;;;;33.53;16.40;;;11.30;99.90;;;;;;4453907;28;656263;-66
2021/04/30 02:16:04;;;;;;;31.57;16.60;;;11.30;99.90;;;;;;4434408;28;656572;-66
2021/04/30 02:18:51;;;;;;;33.00;16.37;;;11.30;99.90;;;;;;4451481;28;657049;-66
2021/04/30 02:21:38;;;;;;;31.93;16.10;;;11.30;99.90;;;;;;4446958;28;656927;-68
2021/04/30 02:24:25;;;;;;;29.30;15.83;;;11.20;99.90;;;;;;4452054;28;656579;-66
2021/04/30 02:27:12;;;;;;;30.23;16.25;;;11.20;99.90;;;;;;4448851;28;656768;-67
2021/04/30 02:30:00;;;;;;;36.20;16.75;;;11.20;99.90;;;;;;4466856;28;656962;-67
2021/04/30 02:32:47;;;;;;;28.50;15.70;;;11.20;99.90;;;;;;4437749;28;656675;-67
2021/04/30 02:35:36;;;;;;;28.90;16.00;;;11.20;99.90;;;;;;4461036;28;656610;-66
2021/04/30 02:38:23;;;;;;;32.90;16.80;;;11.20;99.90;;;;;;4438547;28;656822;-67
2021/04/30 02:41:10;;;;;;;33.50;16.97;;;11.20;99.90;;;;;;4449121;28;658139;-66
2021/04/30 02:43:57;;;;;;;33.33;17.47;;;11.20;99.90;;;;;;4461752;28;656814;-68
2021/04/30 02:46:45;;;;;;;33.30;16.80;;;11.20;99.90;;;;;;4452204;28;656817;-66
2021/04/30 02:49:40;;;;;;;37.13;17.67;;;11.20;99.90;;;;;;4441586;28;656817;-67
2021/04/30 02:52:27;;;;;;;34.90;17.07;;;11.20;99.90;;;;;;4429929;28;656950;-66
2021/04/30 02:55:15;;;;;;;36.60;18.07;;;11.20;99.90;;;;;;4437864;28;657158;-67
2021/04/30 02:58:02;;;;;;;34.53;18.80;;;11.20;99.90;;;;;;4439382;28;656789;-67
2021/04/30 03:00:49;;;;;;;35.20;19.07;;;11.20;99.90;;;;;;4465068;28;656566;-66
2021/04/30 03:03:37;;;;;;;33.60;17.90;;;11.20;99.90;;;;;;4456003;28;656664;-66
2021/04/30 03:06:24;;;;;;;40.50;19.40;;;11.20;99.90;;;;;;4432881;28;657788;-66
2021/04/30 03:09:11;;;;;;;38.63;19.10;;;11.20;99.90;;;;;;4450017;28;656770;-66
2021/04/30 03:11:58;;;;;;;36.13;18.67;;;11.20;99.90;;;;;;4441155;28;656613;-66
2021/04/30 03:14:45;;;;;;;34.30;19.57;;;11.20;99.90;;;;;;4463350;28;657442;-66
2021/04/30 03:17:32;;;;;;;34.87;19.07;;;11.20;99.90;;;;;;4439979;28;656370;-66
2021/04/30 03:20:20;;;;;;;33.93;18.40;;;11.20;99.90;;;;;;4468057;28;656493;-66
2021/04/30 03:23:07;;;;;;;36.47;18.63;;;11.10;99.90;;;;;;4432899;28;656480;-67
2021/04/30 03:25:54;;;;;;;34.40;19.63;;;11.20;99.90;;;;;;4459377;28;656220;-66
2021/04/30 03:28:41;;;;;;;39.30;20.57;;;11.10;99.90;;;;;;4455031;28;657004;-66
2021/04/30 03:31:28;;;;;;;37.63;20.83;;;11.10;99.90;;;;;;4444846;28;657041;-68
2021/04/30 03:34:15;;;;;;;38.63;19.97;;;11.10;99.90;;;;;;4452893;28;657156;-65
2021/04/30 03:37:03;;;;;;;32.83;20.07;;;11.10;99.90;;;;;;4441194;28;656487;-67
2021/04/30 03:39:50;;;;;;;39.73;20.37;;;11.10;99.90;;;;;;4452776;28;656804;-65
2021/04/30 03:42:37;;;;;;;32.50;17.23;;;11.10;99.90;;;;;;4436732;28;656906;-66
2021/04/30 03:45:24;;;;;;;32.87;18.43;;;11.10;99.90;;;;;;4459969;28;657505;-66
2021/04/30 03:48:11;;;;;;;31.73;18.17;;;11.10;99.90;;;;;;4456213;28;656817;-66
2021/04/30 03:50:58;;;;;;;37.97;19.77;;;11.10;99.90;;;;;;4435023;28;656921;-66
2021/04/30 03:53:47;;;;;;;36.03;19.23;;;11.00;99.90;;;;;;4455644;28;657415;-66
2021/04/30 03:56:34;;;;;;;36.40;20.10;;;11.10;99.90;;;;;;4437273;28;656481;-66
2021/04/30 03:59:21;;;;;;;37.97;20.00;;;11.10;99.90;;;;;;4447888;28;658011;-66
2021/04/30 04:02:08;;;;;;;37.67;19.87;;;11.10;99.90;;;;;;4443566;28;656918;-67
2021/04/30 04:04:55;;;;;;;35.67;19.33;;;11.10;99.90;;;;;;4454137;28;658058;-66
2021/04/30 04:07:42;;;;;;;39.27;19.63;;;11.10;99.90;;;;;;4457310;28;656771;-67
2021/04/30 04:10:30;;;;;;;37.23;19.90;;;11.10;99.90;;;;;;4470651;28;656868;-66
2021/04/30 04:13:18;;;;;;;37.43;20.70;;;11.10;99.90;;;;;;4436205;28;657312;-67
2021/04/30 04:16:05;;;;;;;38.17;20.20;;;11.10;99.90;;;;;;4456711;28;656996;-66
2021/04/30 04:18:52;;;;;;;33.13;20.33;;;11.10;99.90;;;;;;4444888;28;656334;-67
2021/04/30 04:21:39;;;;;;;35.65;20.17;;;11.10;99.90;;;;;;4454888;28;656988;-66
2021/04/30 04:24:26;;;;;;;34.58;19.52;;;11.10;99.90;;;;;;4455706;28;657360;-66
2021/04/30 04:27:14;;;;;;;36.15;18.45;;;11.20;99.90;;;;;;4432526;28;657284;-65
2021/04/30 04:30:01;;;;;;;34.42;19.35;;;11.20;99.90;;;;;;4456979;28;656717;-66
2021/04/30 04:32:48;;;;;;;33.97;19.00;;;11.20;99.90;;;;;;4431472;28;656175;-67
2021/04/30 04:35:35;;;;;;;40.47;20.40;;;11.20;99.90;;;;;;4452926;28;657895;-66
2021/04/30 04:38:22;;;;;;;37.87;20.33;;;11.20;99.90;;;;;;4440237;28;657004;-67
2021/04/30 04:41:09;;;;;;;37.03;20.50;;;11.30;99.90;;;;;;4453885;28;657172;-67
2021/04/30 04:43:57;;;;;;;41.70;20.80;;;11.20;99.90;;;;;;4459579;28;657014;-66
2021/04/30 04:46:44;;;;;;;39.45;21.08;;;11.30;99.90;;;;;;4440732;28;657341;-67
2021/04/30 04:49:31;;;;;;;39.47;21.87;;;11.30;99.90;;;;;;4460282;28;656936;-66
2021/04/30 04:52:18;;;;;;;40.87;22.57;;;11.30;99.90;;;;;;4432693;28;656228;-66
2021/04/30 04:55:06;;;;;;;41.43;22.70;;;11.30;99.90;;;;;;4458685;28;657534;-67
2021/04/30 04:57:53;;;;;;;40.50;21.23;;;11.40;99.90;;;;;;4435847;28;656671;-66
2021/04/30 05:00:41;;;;;;;39.40;21.80;;;11.40;99.90;;;;;;4459623;28;658048;-66
2021/04/30 05:03:28;;;;;;;38.67;22.73;;;11.40;99.90;;;;;;4439965;28;656888;-66
2021/04/30 05:06:15;;;;;;;36.50;21.10;;;11.40;99.90;;;;;;4454142;28;657861;-66
2021/04/30 05:09:03;;;;;;;35.93;20.33;;;11.40;99.90;;;;;;4440046;28;656311;-67
2021/04/30 05:11:50;;;;;;;33.20;18.60;;;11.40;99.90;;;;;;4450363;28;658253;-67
2021/04/30 05:14:37;;;;;;;35.03;18.90;;;11.40;99.90;;;;;;4450202;28;656797;-67
2021/04/30 05:17:25;;;;;;;31.25;18.73;;;11.40;99.90;;;;;;4461701;28;656219;-66
2021/04/30 05:20:13;;;;;;;33.40;17.83;;;11.40;99.90;;;;;;4438599;28;656431;-67
2021/04/30 05:23:00;;;;;;;33.13;17.97;;;11.40;99.90;;;;;;4449741;28;657365;-67
2021/04/30 05:25:48;;;;;;;29.48;16.73;;;11.40;99.90;;;;;;4432342;28;656942;-67
2021/04/30 05:28:35;;;;;;;32.30;17.20;;;11.40;99.90;;;;;;4458707;28;657746;-66
2021/04/30 05:31:22;;;;;;;30.60;18.07;;;11.40;99.90;;;;;;4455927;28;656120;-67
2021/04/30 05:34:10;;;;;;;32.13;18.87;;;11.40;99.90;;;;;;4469511;28;656581;-66
2021/04/30 05:36:57;;;;;;;37.67;18.37;;;11.40;99.90;;;;;;4435178;28;656923;-67
2021/04/30 05:39:44;;;;;;;32.23;17.73;;;11.40;99.90;;;;;;4459632;28;657139;-66
2021/04/30 05:42:31;;;;;;;28.13;16.70;;;11.40;99.90;;;;;;4459778;28;657136;-66
2021/04/30 05:45:18;;;;;;;33.77;18.13;;;11.50;99.90;;;;;;4432966;28;656680;-66
2021/04/30 05:48:06;;;;;;;35.33;18.50;;;11.50;99.90;;;;;;4466847;28;657033;-66
2021/04/30 05:50:54;;;;;;;35.27;17.87;;;11.60;99.90;;;;;;4431892;28;656796;-66
2021/04/30 05:53:42;;;;;;;32.00;17.10;;;11.60;99.90;;;;;;4455138;28;656524;-67
2021/04/30 05:56:29;;;;;;;31.83;17.80;;;11.60;99.90;;;;;;4430787;28;656834;-67
2021/04/30 05:59:16;;;;;;;33.50;17.07;;;11.60;99.90;;;;;;4458878;28;656815;-68
2021/04/30 06:02:03;;;;;;;36.83;17.47;;;11.60;99.90;;;;;;4447080;28;656580;-67
2021/04/30 06:04:50;;;;;;;33.67;18.50;;;11.60;99.90;;;;;;4460421;28;657005;-67
2021/04/30 06:07:38;;;;;;;30.67;17.48;;;11.60;99.90;;;;;;4437490;28;657057;-67
2021/04/30 06:10:25;;;;;;;30.97;17.53;;;11.50;99.90;;;;;;4462531;28;657861;-67
2021/04/30 06:13:12;;;;;;;30.17;17.63;;;11.50;99.90;;;;;;4432436;28;656758;-67
2021/04/30 06:15:59;;;;;;;32.53;16.70;;;11.50;99.90;;;;;;4462923;28;657075;-67
2021/04/30 06:18:47;;;;;;;27.80;16.33;;;11.60;99.90;;;;;;4457289;28;656434;-67
2021/04/30 06:21:34;;;;;;;27.13;15.87;;;11.70;99.90;;;;;;4446249;28;656621;-67
2021/04/30 06:24:23;;;;;;;26.90;15.00;;;11.70;99.90;;;;;;4459476;28;657605;-67
2021/04/30 06:27:10;;;;;;;27.40;14.13;;;11.90;99.90;;;;;;4439071;28;656939;-67
2021/04/30 06:29:57;;;;;;;26.40;14.07;;;12.00;99.90;;;;;;4434697;28;656610;-67
2021/04/30 06:32:44;;;;;;;25.97;13.93;;;12.10;99.90;;;;;;4461461;28;656053;-68
2021/04/30 06:35:31;;;;;;;23.17;13.45;;;12.30;99.90;;;;;;4449705;28;656827;-67
2021/04/30 06:38:18;;;;;;;24.27;13.63;;;12.20;99.90;;;;;;4440021;28;656862;-67
2021/04/30 06:41:06;;;;;;;23.13;13.20;;;12.30;99.90;;;;;;4467333;28;657983;-67
2021/04/30 06:43:54;;;;;;;20.60;12.93;;;12.50;99.90;;;;;;4435825;28;657405;-67
2021/04/30 06:46:41;;;;;;;18.77;11.87;;;12.50;99.90;;;;;;4459889;28;657674;-66
2021/04/30 06:49:28;;;;;;;21.63;10.63;;;12.60;99.90;;;;;;4442634;28;656988;-67
2021/04/30 06:52:15;;;;;;;19.47;10.63;;;12.70;99.90;;;;;;4469815;28;657957;-67
2021/04/30 06:55:02;;;;;;;17.70;10.10;;;12.80;99.90;;;;;;4438170;28;656463;-67
2021/04/30 06:57:50;;;;;;;22.47;10.47;;;13.10;99.90;;;;;;4457858;28;657779;-67
2021/04/30 07:00:37;;;;;;;18.70;10.13;;;13.50;99.90;;;;;;4431851;28;657276;-67
2021/04/30 07:03:24;;;;;;;20.53;9.37;;;13.70;99.90;;;;;;4464392;28;656992;-67
2021/04/30 07:06:12;;;;;;;14.50;9.00;;;13.80;99.90;;;;;;4451262;28;657015;-68
2021/04/30 07:08:59;;;;;;;16.70;9.17;;;14.00;99.90;;;;;;4439098;28;655859;-68
2021/04/30 07:11:46;;;;;;;14.00;7.70;;;13.90;99.90;;;;;;4465561;28;656367;-68
2021/04/30 07:14:34;;;;;;;13.37;7.37;;;13.80;99.90;;;;;;4434566;28;655293;-67
2021/04/30 07:17:21;;;;;;;16.17;8.10;;;13.80;99.90;;;;;;4468035;28;656287;-67
2021/04/30 07:20:09;;;;;;;12.93;7.40;;;13.90;99.90;;;;;;4433357;28;655540;-67
2021/04/30 07:22:56;;;;;;;13.10;7.33;;;14.00;99.90;;;;;;4449903;28;655543;-68
2021/04/30 07:25:43;;;;;;;11.00;6.97;;;14.10;99.90;;;;;;4431258;28;655386;-67
2021/04/30 07:28:30;;;;;;;12.70;7.43;;;14.30;99.90;;;;;;4464036;28;655883;-67
2021/04/30 07:31:18;;;;;;;11.38;6.47;;;14.40;99.90;;;;;;4440205;28;655801;-67
2021/04/30 07:34:05;;;;;;;14.20;6.72;;;14.10;99.90;;;;;;4458367;28;656737;-67
2021/04/30 07:36:52;;;;;;;10.93;6.25;;;14.10;99.90;;;;;;4431878;28;655361;-67
2021/04/30 07:39:40;;;;;;;9.75;6.13;;;14.10;99.90;;;;;;4462726;28;655359;-67
2021/04/30 07:42:27;;;;;;;11.77;7.37;;;14.00;99.90;;;;;;4440013;28;654465;-67
2021/04/30 07:45:15;;;;;;;11.20;6.87;;;14.00;99.90;;;;;;4453999;28;656502;-68
2021/04/30 07:48:04;;;;;;;14.33;6.73;;;14.40;99.90;;;;;;4455040;28;655628;-67
2021/04/30 07:50:51;;;;;;;10.87;5.90;;;14.50;99.90;;;;;;4454731;28;656836;-68
2021/04/30 07:53:40;;;;;;;13.83;7.63;;;14.60;99.90;;;;;;4446992;28;655246;-67
2021/04/30 07:56:27;;;;;;;12.57;8.13;;;14.50;99.90;;;;;;4455278;28;655673;-67
2021/04/30 07:59:14;;;;;;;13.43;7.60;;;14.40;99.90;;;;;;4448176;28;655485;-67
2021/04/30 08:02:01;;;;;;;13.43;7.43;;;14.20;99.90;;;;;;4454974;28;655877;-68
2021/04/30 08:04:49;;;;;;;9.00;6.97;;;14.20;99.90;;;;;;4439835;28;655447;-68
2021/04/30 08:07:36;;;;;;;13.07;7.53;;;14.20;99.90;;;;;;4464234;28;655637;-68
2021/04/30 08:10:23;;;;;;;10.97;6.83;;;14.60;99.90;;;;;;4448543;28;655719;-68
2021/04/30 08:13:10;;;;;;;11.37;6.93;;;14.90;99.90;;;;;;4450749;28;656779;-68
2021/04/30 08:15:57;;;;;;;12.60;6.23;;;15.10;99.90;;;;;;4446262;28;655683;-68
2021/04/30 08:18:44;;;;;;;7.43;4.20;;;14.90;99.90;;;;;;4465616;28;655328;-70
2021/04/30 08:21:32;;;;;;;10.93;4.30;;;14.80;99.90;;;;;;4457394;28;653945;-69
2021/04/30 08:24:20;;;;;;;11.47;4.20;;;14.90;99.90;;;;;;4430427;28;656600;-69
2021/04/30 08:27:07;;;;;;;7.40;4.47;;;14.80;99.90;;;;;;4438247;28;656150;-68
2021/04/30 08:29:55;;;;;;;8.00;4.20;;;14.50;99.90;;;;;;4462112;28;654750;-68
2021/04/30 08:32:42;;;;;;;8.20;3.93;;;14.70;99.90;;;;;;4432854;28;654513;-68
2021/04/30 08:35:30;;;;;;;6.67;3.73;;;14.80;99.90;;;;;;4459623;28;654628;-68
2021/04/30 08:38:18;;;;;;;4.77;3.30;;;15.00;99.90;;;;;;4457772;28;654644;-68
2021/04/30 08:41:05;;;;;;;7.23;3.43;;;15.10;99.90;;;;;;4457378;28;654535;-68
2021/04/30 08:43:52;;;;;;;5.60;3.50;;;15.10;99.90;;;;;;4434263;28;654625;-68
2021/04/30 08:46:39;;;;;;;9.60;3.90;;;15.40;99.90;;;;;;4458868;28;655559;-69
2021/04/30 08:49:26;;;;;;;7.73;4.13;;;15.80;99.90;;;;;;4455266;28;654230;-69
2021/04/30 08:52:15;;;;;;;5.40;3.53;;;15.80;99.90;;;;;;4427710;28;654233;-69
2021/04/30 08:55:07;;;;;;;8.80;4.60;;;16.00;99.90;;;;;;4434609;28;654411;-70
2021/04/30 08:57:54;;;;;;;9.73;4.88;;;16.00;99.90;;;;;;4435085;28;655711;-71
2021/04/30 09:00:42;;;;;;;6.93;4.37;;;16.00;99.90;;;;;;4451066;28;654951;-71
2021/04/30 09:03:28;;;;;;;5.50;3.70;;;15.70;99.90;;;;;;4434506;28;654309;-71
2021/04/30 09:06:19;;;;;;;6.27;4.07;;;15.60;99.90;;;;;;4456624;28;655528;-67
2021/04/30 09:09:08;;;;;;;5.07;3.20;;;15.60;99.90;;;;;;4437633;28;655568;-70
2021/04/30 09:11:58;;;;;;;4.85;3.35;;;15.60;99.90;;;;;;4430081;28;655278;-71
2021/04/30 09:14:45;;;;;;;6.23;3.93;;;15.60;99.90;;;;;;4436995;28;655075;-72
2021/04/30 09:17:34;;;;;;;6.07;3.10;;;15.80;99.90;;;;;;4438569;28;654534;-70
2021/04/30 09:20:21;;;;;;;7.60;3.30;;;15.50;99.90;;;;;;4453659;28;655999;-70
2021/04/30 09:23:48;;;;;;;4.87;3.20;;;15.70;99.90;;;;;;4448200;28;655054;-69
2021/04/30 09:26:35;;;;;;;5.77;3.93;;;15.90;99.30;;;;;;4374000;28;654728;-71
2021/04/30 09:29:23;;;;;;;7.97;3.83;;;16.00;99.30;;;;;;4366311;28;654406;-70
2021/04/30 09:32:11;;;;;;;5.50;3.10;;;16.60;97.20;;;;;;4387953;28;655543;-70
2021/04/30 09:34:58;;;;;;;4.70;2.90;;;16.80;96.90;;;;;;4368613;28;654923;-69
2021/04/30 09:37:45;;;;;;;5.30;3.30;;;16.70;94.60;;;;;;4395677;28;655261;-71
2021/04/30 09:40:33;;;;;;;6.27;2.97;;;16.40;93.20;;;;;;4377428;28;654525;-70
2021/04/30 09:43:20;;;;;;;6.87;3.77;;;16.50;94.40;;;;;;4382872;28;656174;-71
2021/04/30 09:46:27;;;;;;;4.50;3.10;;;17.00;93.50;;;;;;4367136;28;654205;-70
2021/04/30 09:49:15;;;;;;;7.27;3.17;;;17.70;90.40;;;;;;4344335;28;654914;-69
2021/04/30 09:52:02;;;;;;;7.23;3.30;;;17.60;91.00;;;;;;4365978;28;655386;-70
2021/04/30 09:54:50;;;;;;;3.87;3.17;;;17.90;89.00;;;;;;4396204;28;655096;-70
2021/04/30 09:57:37;;;;;;;6.20;3.40;;;18.20;87.60;;;;;;4384152;28;654648;-70
2021/04/30 10:00:24;;;;;;;6.00;3.67;;;18.50;86.30;;;;;;4393337;28;655662;-69
2021/04/30 10:03:16;;;;;;;5.43;3.30;;;18.30;86.60;;;;;;4388322;28;654562;-70
2021/04/30 10:06:15;;;;;;;7.70;3.92;;;18.10;84.90;;;;;;4367729;28;655951;-68
2021/04/30 10:09:03;;;;;;;5.97;3.90;;;18.00;83.10;;;;;;4421635;28;656409;-67
2021/04/30 10:11:50;;;;;;;7.33;3.70;;;17.70;83.60;;;;;;4464495;28;655205;-68
2021/04/30 10:14:37;;;;;;;8.73;4.20;;;17.40;83.50;;;;;;4447259;28;654839;-67
2021/04/30 10:17:24;;;;;;;5.37;2.93;;;17.00;85.70;;;;;;4452580;28;654037;-69
2021/04/30 10:20:14;;;;;;;5.93;2.80;;;17.20;81.00;;;;;;4460647;28;653944;-69
2021/04/30 10:23:01;;;;;;;3.77;2.30;;;17.20;82.50;;;;;;4439300;28;654955;-70
2021/04/30 10:25:49;;;;;;;4.97;2.97;;;17.50;79.90;;;;;;4435180;28;654393;-70
2021/04/30 10:28:37;;;;;;;6.37;3.23;;;18.10;81.60;;;;;;4457795;28;654471;-70
2021/04/30 10:31:26;;;;;;;8.27;3.20;;;18.00;77.40;;;;;;4428928;28;656326;-69
2021/04/30 10:34:18;;;;;;;5.43;3.67;;;17.50;75.00;;;;;;4440545;28;654664;-70
2021/04/30 10:37:06;;;;;;;7.80;3.50;;;17.40;76.60;;;;;;4440867;28;654938;-69
2021/04/30 10:39:57;;;;;;;4.43;2.90;;;17.20;78.20;;;;;;4440914;28;654253;-69
2021/04/30 10:42:44;;;;;;;6.83;3.50;;;17.00;77.30;;;;;;4444935;28;654171;-69
2021/04/30 10:45:31;;;;;;;5.90;3.43;;;17.20;75.10;;;;;;4451359;28;654693;-69
2021/04/30 10:48:18;;;;;;;6.47;3.53;;;17.40;76.60;;;;;;4442819;28;654271;-70
2021/04/30 10:51:10;;;;;;;6.60;3.20;;;18.10;79.60;;;;;;4461275;28;656236;-68
2021/04/30 10:54:22;;;;;;;6.43;3.50;;;18.30;74.00;;;;;;4435125;28;654501;-68
2021/04/30 10:57:09;;;;;;;6.20;3.47;;;17.70;74.80;;;;;;4408077;28;654938;-68
2021/04/30 10:59:58;;;;;;;6.10;3.73;;;17.80;77.60;;;;;;4452463;28;655114;-68
2021/04/30 11:02:45;;;;;;;4.60;3.33;;;18.20;74.00;;;;;;4440397;28;655651;-68
2021/04/30 11:05:32;;;;;;;6.03;3.20;;;18.70;74.70;;;;;;4449694;28;654861;-69
2021/04/30 11:08:19;;;;;;;7.43;3.40;;;18.50;72.50;;;;;;4461572;28;654049;-69
2021/04/30 11:11:07;;;;;;;4.90;2.70;;;18.80;70.00;;;;;;4460518;28;654559;-69
2021/04/30 11:14:22;;;;;;;4.20;3.20;;;18.90;70.70;;;;;;4447103;28;655725;-68
2021/04/30 11:17:09;;;;;;;5.00;3.27;;;18.90;68.00;;;;;;4405264;28;654655;-69
2021/04/30 11:19:56;;;;;;;7.55;3.10;;;19.10;69.60;;;;;;4448424;28;654564;-67
2021/04/30 11:22:43;;;;;;;6.17;3.57;;;19.00;69.60;;;;;;4431748;28;654891;-68
2021/04/30 11:25:30;;;;;;;6.33;3.13;;;19.20;70.40;;;;;;4453754;28;655318;-67
2021/04/30 11:28:18;;;;;;;6.03;2.83;;;19.00;69.70;;;;;;4443391;28;654632;-69
2021/04/30 11:31:06;;;;;;;5.80;3.10;;;19.00;68.40;;;;;;4463494;28;654489;-69
2021/04/30 11:34:31;;;;;;;4.47;2.77;;;19.50;68.90;;;;;;4442621;28;654596;-67
2021/04/30 11:37:18;;;;;;;4.37;3.40;;;19.70;66.80;;;;;;4413746;28;655326;-69
2021/04/30 11:40:06;;;;;;;6.77;3.13;;;19.70;64.60;;;;;;4451616;28;655265;-69
2021/04/30 11:43:06;;;;;;;6.63;2.93;;;19.60;62.20;;;;;;4432802;28;654599;-70
2021/04/30 11:45:54;;;;;;;5.07;2.60;;;19.80;61.90;;;;;;4421749;28;655370;-69
2021/04/30 11:48:42;;;;;;;4.40;2.80;;;19.90;63.90;;;;;;4464349;28;655183;-71
2021/04/30 11:51:29;;;;;;;6.73;2.80;;;19.60;63.20;;;;;;4428083;28;654749;-67
2021/04/30 11:54:20;;;;;;;5.40;2.37;;;19.50;62.00;;;;;;4463870;28;655182;-70
2021/04/30 11:57:09;;;;;;;5.07;2.40;;;19.90;67.00;;;;;;4415055;28;655553;-69
2021/04/30 11:59:57;;;;;;;4.37;2.70;;;20.50;68.40;;;;;;4458880;28;654188;-67
2021/04/30 12:02:44;;;;;;;3.73;2.43;;;20.20;65.40;;;;;;4444324;28;654970;-69
2021/04/30 12:05:31;;;;;;;4.93;2.67;;;19.50;61.60;;;;;;4454251;28;654503;-69
2021/04/30 12:08:18;;;;;;;7.50;2.60;;;19.40;62.60;;;;;;4434284;28;654593;-68
2021/04/30 12:11:05;;;;;;;5.03;2.67;;;19.50;64.20;;;;;;4459724;28;655400;-70
2021/04/30 12:13:53;;;;;;;3.53;2.50;;;19.80;62.30;;;;;;4432559;28;654209;-69
2021/04/30 12:16:40;;;;;;;6.03;2.70;;;20.10;60.50;;;;;;4454594;28;654529;-70
2021/04/30 12:19:28;;;;;;;3.63;2.60;;;19.70;60.90;;;;;;4455448;28;654846;-69
2021/04/30 12:22:18;;;;;;;6.03;3.00;;;19.80;63.30;;;;;;4467698;28;654983;-69
2021/04/30 12:25:28;;;;;;;6.17;3.27;;;19.80;61.50;;;;;;4432334;28;654863;-70
2021/04/30 12:28:20;;;;;;;9.47;2.73;;;20.00;62.60;;;;;;4417704;28;654974;-70
2021/04/30 12:31:08;;;;;;;6.27;2.70;;;20.10;62.60;;;;;;4430405;28;655027;-69
2021/04/30 12:33:55;;;;;;;5.17;3.63;;;20.40;63.00;;;;;;4456991;28;655740;-69
2021/04/30 12:36:44;;;;;;;5.57;3.10;;;20.30;58.70;;;;;;4438329;28;654585;-70
2021/04/30 12:39:31;;;;;;;8.10;3.23;;;20.20;60.20;;;;;;4471097;28;654839;-66
2021/04/30 12:42:18;;;;;;;4.57;3.00;;;20.00;58.90;;;;;;4437053;28;654634;-66
2021/04/30 12:45:07;;;;;;;5.73;2.70;;;20.00;58.40;;;;;;4470806;28;654551;-65
2021/04/30 12:47:55;;;;;;;8.60;2.70;;;20.20;59.00;;;;;;4437903;28;654923;-69
2021/04/30 12:50:42;;;;;;;4.38;2.70;;;20.10;60.00;;;;;;4453210;28;654587;-69
2021/04/30 12:53:30;;;;;;;9.10;3.63;;;20.30;59.70;;;;;;4458540;28;654988;-70
2021/04/30 12:56:28;;;;;;;5.30;3.20;;;20.40;59.00;;;;;;4439363;28;655194;-69
2021/04/30 12:59:15;;;;;;;6.57;3.20;;;20.70;60.10;;;;;;4432679;28;654960;-70
2021/04/30 13:02:08;;;;;;;4.00;2.70;;;20.50;63.00;;;;;;4445614;28;654610;-69
2021/04/30 13:04:55;;;;;;;6.90;2.97;;;21.20;58.30;;;;;;4441075;28;655187;-68
2021/04/30 13:07:42;;;;;;;4.80;3.10;;;20.90;57.30;;;;;;4437980;28;654555;-69
2021/04/30 13:10:32;;;;;;;5.53;2.80;;;20.20;57.30;;;;;;4459574;28;654433;-69
2021/04/30 13:13:19;;;;;;;4.77;2.70;;;20.10;58.70;;;;;;4446589;28;654948;-69
2021/04/30 13:16:06;;;;;;;4.03;3.30;;;20.00;58.70;;;;;;4462812;28;655782;-69
2021/04/30 13:18:53;;;;;;;6.73;2.93;;;20.40;59.80;;;;;;4441886;28;654640;-68
2021/04/30 13:21:41;;;;;;;4.03;2.63;;;20.70;58.10;;;;;;4460145;28;656165;-67
2021/04/30 13:24:29;;;;;;;5.70;2.80;;;20.80;60.30;;;;;;4436963;28;654547;-65
2021/04/30 13:27:17;;;;;;;5.10;3.17;;;20.40;57.20;;;;;;4462769;28;655077;-65
2021/04/30 13:30:05;;;;;;;4.47;2.90;;;20.10;57.50;;;;;;4437409;28;654500;-66
2021/04/30 13:32:52;;;;;;;4.90;3.00;;;20.30;59.50;;;;;;4438956;28;654977;-66
2021/04/30 13:35:39;;;;;;;3.83;2.57;;;20.20;57.80;;;;;;4466514;28;654648;-66
2021/04/30 13:38:27;;;;;;;5.10;2.87;;;20.80;59.50;;;;;;4462628;28;654729;-66
2021/04/30 13:41:16;;;;;;;3.40;3.07;;;20.70;59.20;;;;;;4442414;28;654148;-66
2021/04/30 13:44:17;;;;;;;3.20;2.80;;;20.40;58.40;;;;;;4440051;28;654886;-66
2021/04/30 13:47:04;;;;;;;5.67;3.40;;;20.50;58.80;;;;;;4399821;28;654997;-66
2021/04/30 13:49:53;;;;;;;4.33;3.00;;;20.50;58.80;;;;;;4443932;28;654417;-66
2021/04/30 13:52:40;;;;;;;4.53;3.07;;;20.50;61.50;;;;;;4416619;28;655800;-66
2021/04/30 13:55:27;;;;;;;7.17;2.90;;;21.00;58.90;;;;;;4426993;28;656488;-66
2021/04/30 13:58:14;;;;;;;4.40;3.30;;;21.10;59.30;;;;;;4451323;28;654170;-65
2021/04/30 14:01:02;;;;;;;6.13;3.20;;;21.70;58.70;;;;;;4449311;28;654927;-66
2021/04/30 14:03:49;;;;;;;3.87;3.07;;;21.30;57.60;;;;;;4413975;28;655227;-66
2021/04/30 14:06:36;;;;;;;4.13;2.83;;;21.20;58.50;;;;;;4444626;28;654469;-65
2021/04/30 14:09:23;;;;;;;3.30;3.00;;;21.00;57.30;;;;;;4424698;28;655033;-66
2021/04/30 14:12:11;;;;;;;6.13;3.50;;;21.20;59.50;;;;;;4439046;28;657005;-66